sensor_id;sensor_type;location;lat;lon;timestamp;pressure;altitude;pressure_sealevel;temperature;humidity
78509;BME280;67802;50.846;7.958;2024-02-21T00:01:25;98546.38;;;19.87;36.04
78509;BME280;67802;50.846;7.958;2024-02-21T00:03:50;98537.63;;;19.87;36.12
78509;BME280;67802;50.846;7.958;2024-02-21T00:06:16;98537.75;;;19.85;36.24
78509;BME280;67802;50.846;7.958;2024-02-21T00:08:41;98532.59;;;19.84;36.07
78509;BME280;67802;50.846;7.958;2024-02-21T00:11:06;98536.91;;;19.85;36.16
78509;BME280;67802;50.846;7.958;2024-02-21T00:13:32;98525.53;;;19.84;36.27
78509;BME280;67802;50.846;7.958;2024-02-21T00:15:57;98525.53;;;19.84;36.14
78509;BME280;67802;50.846;7.958;2024-02-21T00:18:23;98522.16;;;19.82;36.10
78509;BME280;67802;50.846;7.958;2024-02-21T00:20:48;98529.94;;;19.84;36.22
78509;BME280;67802;50.846;7.958;2024-02-21T00:23:14;98523.94;;;19.82;36.26
78509;BME280;67802;50.846;7.958;2024-02-21T00:25:39;98523.94;;;19.82;36.28
78509;BME280;67802;50.846;7.958;2024-02-21T00:28:05;98526.56;;;19.82;36.38
78509;BME280;67802;50.846;7.958;2024-02-21T00:30:31;98534.38;;;19.83;36.22
78509;BME280;67802;50.846;7.958;2024-02-21T00:32:56;98529.22;;;19.82;36.27
78509;BME280;67802;50.846;7.958;2024-02-21T00:35:22;98515.81;;;19.85;36.23
78509;BME280;67802;50.846;7.958;2024-02-21T00:37:47;98515.94;;;19.83;36.15
78509;BME280;67802;50.846;7.958;2024-02-21T00:40:12;98516.75;;;19.84;36.11
78509;BME280;67802;50.846;7.958;2024-02-21T00:42:37;98516.75;;;19.84;36.17
78509;BME280;67802;50.846;7.958;2024-02-21T00:45:03;98503.59;;;19.84;36.19
78509;BME280;67802;50.846;7.958;2024-02-21T00:47:29;98502.63;;;19.85;36.14
78509;BME280;67802;50.846;7.958;2024-02-21T00:49:54;98500.00;;;19.85;36.07
78509;BME280;67802;50.846;7.958;2024-02-21T00:52:20;98494.72;;;19.85;36.03
78509;BME280;67802;50.846;7.958;2024-02-21T00:54:45;98496.41;;;19.86;36.02
78509;BME280;67802;50.846;7.958;2024-02-21T00:57:11;98500.72;;;19.87;36.09
78509;BME280;67802;50.846;7.958;2024-02-21T00:59:37;98494.50;;;19.88;36.07
78509;BME280;67802;50.846;7.958;2024-02-21T01:02:02;98485.69;;;19.89;36.04
78509;BME280;67802;50.846;7.958;2024-02-21T01:04:27;98481.22;;;19.90;36.06
78509;BME280;67802;50.846;7.958;2024-02-21T01:06:52;98479.44;;;19.90;35.96
78509;BME280;67802;50.846;7.958;2024-02-21T01:09:18;98481.13;;;19.91;35.93
78509;BME280;67802;50.846;7.958;2024-02-21T01:11:43;98477.56;;;19.92;35.81
78509;BME280;67802;50.846;7.958;2024-02-21T01:14:08;98481.88;;;19.93;35.72
78509;BME280;67802;50.846;7.958;2024-02-21T01:16:34;98478.28;;;19.94;35.87
78509;BME280;67802;50.846;7.958;2024-02-21T01:18:59;98479.97;;;19.95;35.88
78509;BME280;67802;50.846;7.958;2024-02-21T01:21:24;98474.56;;;19.97;35.82
78509;BME280;67802;50.846;7.958;2024-02-21T01:23:49;98480.69;;;19.97;35.80
78509;BME280;67802;50.846;7.958;2024-02-21T01:26:15;98477.94;;;19.99;35.76
78509;BME280;67802;50.846;7.958;2024-02-21T01:28:41;98467.31;;;20.00;35.83
78509;BME280;67802;50.846;7.958;2024-02-21T01:31:06;98463.72;;;20.01;35.82
78509;BME280;67802;50.846;7.958;2024-02-21T01:33:32;98461.06;;;20.01;35.74
78509;BME280;67802;50.846;7.958;2024-02-21T01:36:02;98463.72;;;20.01;35.75
78509;BME280;67802;50.846;7.958;2024-02-21T01:38:28;98469.81;;;20.02;35.90
78509;BME280;67802;50.846;7.958;2024-02-21T01:40:54;98457.47;;;20.02;35.74
78509;BME280;67802;50.846;7.958;2024-02-21T01:43:20;98459.16;;;20.04;35.73
78509;BME280;67802;50.846;7.958;2024-02-21T01:45:48;98458.22;;;20.05;35.70
78509;BME280;67802;50.846;7.958;2024-02-21T01:48:14;98455.44;;;20.06;35.60
78509;BME280;67802;50.846;7.958;2024-02-21T01:50:40;98439.63;;;20.06;35.61
78509;BME280;67802;50.846;7.958;2024-02-21T01:53:06;98433.53;;;20.06;35.71
78509;BME280;67802;50.846;7.958;2024-02-21T01:55:32;98436.16;;;20.06;35.58
78509;BME280;67802;50.846;7.958;2024-02-21T01:57:57;98435.22;;;20.07;35.72
78509;BME280;67802;50.846;7.958;2024-02-21T02:00:23;98438.69;;;20.07;35.63
78509;BME280;67802;50.846;7.958;2024-02-21T02:02:49;98434.25;;;20.08;35.64
78509;BME280;67802;50.846;7.958;2024-02-21T02:05:15;98425.50;;;20.07;35.48
78509;BME280;67802;50.846;7.958;2024-02-21T02:07:42;98424.66;;;20.07;35.56
78509;BME280;67802;50.846;7.958;2024-02-21T02:10:07;98421.06;;;20.08;35.51
78509;BME280;67802;50.846;7.958;2024-02-21T02:12:33;98408.72;;;20.08;35.56
78509;BME280;67802;50.846;7.958;2024-02-21T02:15:02;98401.66;;;20.09;35.36
78509;BME280;67802;50.846;7.958;2024-02-21T02:17:31;98401.66;;;20.09;35.41
78509;BME280;67802;50.846;7.958;2024-02-21T02:19:57;98400.81;;;20.08;35.46
78509;BME280;67802;50.846;7.958;2024-02-21T02:22:28;98393.00;;;20.07;35.54
78509;BME280;67802;50.846;7.958;2024-02-21T02:24:53;98390.38;;;20.07;35.49
78509;BME280;67802;50.846;7.958;2024-02-21T02:27:19;98397.44;;;20.06;35.44
78509;BME280;67802;50.846;7.958;2024-02-21T02:29:44;98389.66;;;20.05;35.60
78509;BME280;67802;50.846;7.958;2024-02-21T02:32:10;98386.28;;;20.02;35.51
78509;BME280;67802;50.846;7.958;2024-02-21T02:34:35;98391.56;;;20.02;35.55
78509;BME280;67802;50.846;7.958;2024-02-21T02:37:00;98381.00;;;20.02;35.54
78509;BME280;67802;50.846;7.958;2024-02-21T02:39:25;98386.50;;;19.99;35.57
78509;BME280;67802;50.846;7.958;2024-02-21T02:41:51;98376.91;;;19.98;35.50
78509;BME280;67802;50.846;7.958;2024-02-21T02:44:16;98373.41;;;19.98;35.60
78509;BME280;67802;50.846;7.958;2024-02-21T02:46:42;98360.34;;;19.96;35.50
78509;BME280;67802;50.846;7.958;2024-02-21T02:49:07;98358.69;;;19.95;35.88
78509;BME280;67802;50.846;7.958;2024-02-21T02:51:32;98354.34;;;19.94;35.59
78509;BME280;67802;50.846;7.958;2024-02-21T02:53:58;98350.03;;;19.93;35.24
78509;BME280;67802;50.846;7.958;2024-02-21T02:56:23;98344.84;;;19.92;35.57
78509;BME280;67802;50.846;7.958;2024-02-21T02:58:48;98330.84;;;19.91;35.66
78509;BME280;67802;50.846;7.958;2024-02-21T03:01:13;98332.75;;;19.89;35.65
78509;BME280;67802;50.846;7.958;2024-02-21T03:03:39;98325.78;;;19.88;35.60
78509;BME280;67802;50.846;7.958;2024-02-21T03:06:05;98320.50;;;19.88;35.47
78509;BME280;67802;50.846;7.958;2024-02-21T03:08:30;98318.81;;;19.87;35.50
78509;BME280;67802;50.846;7.958;2024-02-21T03:10:56;98327.69;;;19.86;35.74
78509;BME280;67802;50.846;7.958;2024-02-21T03:13:21;98326.94;;;19.84;35.73
78509;BME280;67802;50.846;7.958;2024-02-21T03:15:46;98323.50;;;19.83;35.58
78509;BME280;67802;50.846;7.958;2024-02-21T03:18:12;98325.41;;;19.81;35.54
78509;BME280;67802;50.846;7.958;2024-02-21T03:20:37;98324.53;;;19.81;35.59
78509;BME280;67802;50.846;7.958;2024-02-21T03:23:02;98323.72;;;19.80;35.64
78509;BME280;67802;50.846;7.958;2024-02-21T03:25:27;98324.53;;;19.81;35.54
78509;BME280;67802;50.846;7.958;2024-02-21T03:27:53;98328.13;;;19.80;35.90
78509;BME280;67802;50.846;7.958;2024-02-21T03:30:18;98336.97;;;19.79;35.71
78509;BME280;67802;50.846;7.958;2024-02-21T03:32:43;98330.88;;;19.78;35.43
78509;BME280;67802;50.846;7.958;2024-02-21T03:35:09;98318.66;;;19.77;35.72
78509;BME280;67802;50.846;7.958;2024-02-21T03:37:35;98318.66;;;19.77;35.44
78509;BME280;67802;50.846;7.958;2024-02-21T03:40:00;98319.50;;;19.78;35.63
78509;BME280;67802;50.846;7.958;2024-02-21T03:42:25;98328.34;;;19.77;35.54
78509;BME280;67802;50.846;7.958;2024-02-21T03:44:50;98327.53;;;19.76;35.46
78509;BME280;67802;50.846;7.958;2024-02-21T03:47:16;98325.72;;;19.77;35.62
78509;BME280;67802;50.846;7.958;2024-02-21T03:49:41;98324.75;;;19.78;35.57
78509;BME280;67802;50.846;7.958;2024-02-21T03:52:07;98316.03;;;19.77;35.51
78509;BME280;67802;50.846;7.958;2024-02-21T03:54:33;98299.34;;;19.77;35.57
78509;BME280;67802;50.846;7.958;2024-02-21T03:56:58;98308.94;;;19.78;35.54
78509;BME280;67802;50.846;7.958;2024-02-21T03:59:23;98308.94;;;19.78;35.67
78509;BME280;67802;50.846;7.958;2024-02-21T04:01:52;98296.50;;;19.80;35.66
78509;BME280;67802;50.846;7.958;2024-02-21T04:04:18;98300.06;;;19.79;35.61
78509;BME280;67802;50.846;7.958;2024-02-21T04:06:47;98285.94;;;19.80;35.44
78509;BME280;67802;50.846;7.958;2024-02-21T04:09:13;98292.06;;;19.80;35.62
78509;BME280;67802;50.846;7.958;2024-02-21T04:11:38;98282.34;;;19.81;35.55
78509;BME280;67802;50.846;7.958;2024-02-21T04:14:04;98284.03;;;19.82;35.58
78509;BME280;67802;50.846;7.958;2024-02-21T04:16:29;98277.81;;;19.83;35.61
78509;BME280;67802;50.846;7.958;2024-02-21T04:18:54;98271.59;;;19.84;35.41
78509;BME280;67802;50.846;7.958;2024-02-21T04:21:19;98262.72;;;19.85;35.56
78509;BME280;67802;50.846;7.958;2024-02-21T04:23:45;98281.19;;;19.85;35.49
78509;BME280;67802;50.846;7.958;2024-02-21T04:26:10;98274.94;;;19.86;35.37
78509;BME280;67802;50.846;7.958;2024-02-21T04:28:35;98278.31;;;19.88;35.51
78509;BME280;67802;50.846;7.958;2024-02-21T04:31:01;98269.47;;;19.89;35.14
78509;BME280;67802;50.846;7.958;2024-02-21T04:33:26;98278.22;;;19.90;35.16
78509;BME280;67802;50.846;7.958;2024-02-21T04:35:51;98270.31;;;19.90;35.53
78509;BME280;67802;50.846;7.958;2024-02-21T04:38:19;98267.56;;;19.91;35.26
78509;BME280;67802;50.846;7.958;2024-02-21T04:40:45;98272.84;;;19.91;35.46
78509;BME280;67802;50.846;7.958;2024-02-21T04:43:10;98259.53;;;19.93;35.36
78509;BME280;67802;50.846;7.958;2024-02-21T04:45:35;98265.66;;;19.93;35.36
78509;BME280;67802;50.846;7.958;2024-02-21T04:48:01;98260.38;;;19.93;35.41
78509;BME280;67802;50.846;7.958;2024-02-21T04:50:26;98269.13;;;19.94;35.44
78509;BME280;67802;50.846;7.958;2024-02-21T04:52:52;98255.84;;;19.95;35.39
78509;BME280;67802;50.846;7.958;2024-02-21T04:55:17;98253.22;;;19.95;35.31
78509;BME280;67802;50.846;7.958;2024-02-21T04:57:43;98252.25;;;19.96;35.35
78509;BME280;67802;50.846;7.958;2024-02-21T05:00:08;98253.94;;;19.97;35.35
78509;BME280;67802;50.846;7.958;2024-02-21T05:02:34;98253.94;;;19.97;35.42
78509;BME280;67802;50.846;7.958;2024-02-21T05:05:00;98250.34;;;19.98;35.19
78509;BME280;67802;50.846;7.958;2024-02-21T05:07:25;98244.13;;;19.99;35.38
78509;BME280;67802;50.846;7.958;2024-02-21T05:09:50;98258.25;;;19.98;35.23
78509;BME280;67802;50.846;7.958;2024-02-21T05:12:16;98254.66;;;19.99;35.24
78509;BME280;67802;50.846;7.958;2024-02-21T05:14:41;98256.34;;;20.00;35.16
78509;BME280;67802;50.846;7.958;2024-02-21T05:17:06;98252.75;;;20.01;35.15
78509;BME280;67802;50.846;7.958;2024-02-21T05:19:32;98242.28;;;20.00;35.33
78509;BME280;67802;50.846;7.958;2024-02-21T05:21:58;98247.47;;;20.01;35.30
78509;BME280;67802;50.846;7.958;2024-02-21T05:24:24;98251.88;;;20.01;35.30
78509;BME280;67802;50.846;7.958;2024-02-21T05:26:49;98253.56;;;20.02;35.21
78509;BME280;67802;50.846;7.958;2024-02-21T05:29:14;98252.75;;;20.01;35.28
78509;BME280;67802;50.846;7.958;2024-02-21T05:31:55;98258.03;;;20.01;35.38
78509;BME280;67802;50.846;7.958;2024-02-21T05:34:22;98252.75;;;20.01;35.12
78509;BME280;67802;50.846;7.958;2024-02-21T05:36:47;98255.38;;;20.01;35.24
78509;BME280;67802;50.846;7.958;2024-02-21T05:39:15;98240.53;;;20.00;35.26
78509;BME280;67802;50.846;7.958;2024-02-21T05:41:40;98244.94;;;20.00;35.18
78509;BME280;67802;50.846;7.958;2024-02-21T05:44:05;98246.75;;;19.99;35.31
78509;BME280;67802;50.846;7.958;2024-02-21T05:46:31;98254.66;;;19.99;35.22
78509;BME280;67802;50.846;7.958;2024-02-21T05:48:56;98252.13;;;19.98;35.29
78509;BME280;67802;50.846;7.958;2024-02-21T05:51:22;98252.25;;;19.96;35.18
78509;BME280;67802;50.846;7.958;2024-02-21T05:53:47;98247.94;;;19.95;35.28
78509;BME280;67802;50.846;7.958;2024-02-21T05:56:14;98255.13;;;19.93;35.28
78509;BME280;67802;50.846;7.958;2024-02-21T05:58:39;98251.63;;;19.93;35.32
78509;BME280;67802;50.846;7.958;2024-02-21T06:01:05;98242.88;;;19.92;35.33
78509;BME280;67802;50.846;7.958;2024-02-21T06:03:32;98246.47;;;19.91;35.25
78509;BME280;67802;50.846;7.958;2024-02-21T06:05:58;98242.16;;;19.90;35.37
78509;BME280;67802;50.846;7.958;2024-02-21T06:08:24;98237.00;;;19.89;35.32
78509;BME280;67802;50.846;7.958;2024-02-21T06:10:49;98231.81;;;19.87;35.51
78509;BME280;67802;50.846;7.958;2024-02-21T06:13:17;98244.16;;;19.86;35.36
78509;BME280;67802;50.846;7.958;2024-02-21T06:15:42;98241.63;;;19.85;35.48
78509;BME280;67802;50.846;7.958;2024-02-21T06:18:07;98236.34;;;19.85;35.32
78509;BME280;67802;50.846;7.958;2024-02-21T06:20:33;98233.94;;;19.82;35.48
78509;BME280;67802;50.846;7.958;2024-02-21T06:23:01;98244.50;;;19.82;35.47
78509;BME280;67802;50.846;7.958;2024-02-21T06:25:26;98234.91;;;19.81;35.17
78509;BME280;67802;50.846;7.958;2024-02-21T06:27:51;98227.94;;;19.80;35.44
78509;BME280;67802;50.846;7.958;2024-02-21T06:30:17;98228.91;;;19.79;35.45
78509;BME280;67802;50.846;7.958;2024-02-21T06:32:42;98233.34;;;19.78;35.51
78509;BME280;67802;50.846;7.958;2024-02-21T06:35:07;98235.13;;;19.78;35.46
78509;BME280;67802;50.846;7.958;2024-02-21T06:37:33;98235.13;;;19.78;35.38
78509;BME280;67802;50.846;7.958;2024-02-21T06:39:59;98235.13;;;19.78;35.40
78509;BME280;67802;50.846;7.958;2024-02-21T06:42:25;98229.88;;;19.78;35.45
78509;BME280;67802;50.846;7.958;2024-02-21T06:44:50;98225.53;;;19.77;35.35
78509;BME280;67802;50.846;7.958;2024-02-21T06:47:15;98228.19;;;19.77;35.65
78509;BME280;67802;50.846;7.958;2024-02-21T06:49:41;98222.09;;;19.76;35.45
78509;BME280;67802;50.846;7.958;2024-02-21T06:52:07;98214.19;;;19.76;35.52
78509;BME280;67802;50.846;7.958;2024-02-21T06:54:32;98217.63;;;19.77;35.55
78509;BME280;67802;50.846;7.958;2024-02-21T06:56:58;98204.47;;;19.77;35.43
78509;BME280;67802;50.846;7.958;2024-02-21T06:59:23;98201.81;;;19.77;35.49
78509;BME280;67802;50.846;7.958;2024-02-21T07:01:49;98195.72;;;19.76;35.35
78509;BME280;67802;50.846;7.958;2024-02-21T07:04:15;98196.56;;;19.77;35.29
78509;BME280;67802;50.846;7.958;2024-02-21T07:06:40;98191.28;;;19.77;35.35
78509;BME280;67802;50.846;7.958;2024-02-21T07:09:06;98195.59;;;19.78;35.48
78509;BME280;67802;50.846;7.958;2024-02-21T07:11:31;98193.81;;;19.78;35.49
78509;BME280;67802;50.846;7.958;2024-02-21T07:13:56;98194.63;;;19.79;35.27
78509;BME280;67802;50.846;7.958;2024-02-21T07:16:22;98192.84;;;19.79;35.34
78509;BME280;67802;50.846;7.958;2024-02-21T07:18:47;98189.28;;;19.80;35.31
78509;BME280;67802;50.846;7.958;2024-02-21T07:21:12;98192.72;;;19.81;35.44
78509;BME280;67802;50.846;7.958;2024-02-21T07:23:41;98186.50;;;19.82;35.38
78509;BME280;67802;50.846;7.958;2024-02-21T07:26:07;98191.66;;;19.83;35.57
78509;BME280;67802;50.846;7.958;2024-02-21T07:28:32;98197.78;;;19.84;35.10
78509;BME280;67802;50.846;7.958;2024-02-21T07:30:59;98194.19;;;19.85;35.33
78509;BME280;67802;50.846;7.958;2024-02-21T07:33:24;98200.31;;;19.85;35.24
78509;BME280;67802;50.846;7.958;2024-02-21T07:35:49;98193.09;;;19.87;35.28
78509;BME280;67802;50.846;7.958;2024-02-21T07:38:15;98190.38;;;19.89;35.38
78509;BME280;67802;50.846;7.958;2024-02-21T07:40:44;98190.38;;;19.89;35.36
78509;BME280;67802;50.846;7.958;2024-02-21T07:43:09;98192.06;;;19.90;35.23
78509;BME280;67802;50.846;7.958;2024-02-21T07:45:35;98187.63;;;19.91;35.26
78509;BME280;67802;50.846;7.958;2024-02-21T07:48:00;98180.44;;;19.93;35.22
78509;BME280;67802;50.846;7.958;2024-02-21T07:50:26;98173.38;;;19.93;35.22
78509;BME280;67802;50.846;7.958;2024-02-21T07:52:51;98182.97;;;19.94;35.35
78509;BME280;67802;50.846;7.958;2024-02-21T07:55:16;98172.44;;;19.94;35.26
78509;BME280;67802;50.846;7.958;2024-02-21T07:57:42;98165.25;;;19.96;35.28
78509;BME280;67802;50.846;7.958;2024-02-21T08:00:07;98167.88;;;19.96;35.18
78509;BME280;67802;50.846;7.958;2024-02-21T08:02:40;98161.66;;;19.97;35.27
78509;BME280;67802;50.846;7.958;2024-02-21T08:05:07;98157.19;;;19.98;35.18
78509;BME280;67802;50.846;7.958;2024-02-21T08:07:32;98156.25;;;19.99;35.23
78509;BME280;67802;50.846;7.958;2024-02-21T08:09:57;98160.69;;;19.98;35.21
78509;BME280;67802;50.846;7.958;2024-02-21T08:12:23;98160.56;;;20.00;35.20
78509;BME280;67802;50.846;7.958;2024-02-21T08:14:48;98155.28;;;20.00;35.34
78509;BME280;67802;50.846;7.958;2024-02-21T08:17:13;98159.59;;;20.01;35.18
78509;BME280;67802;50.846;7.958;2024-02-21T08:19:38;98156.97;;;20.01;35.21
78509;BME280;67802;50.846;7.958;2024-02-21T08:22:04;98142.97;;;20.00;35.15
78509;BME280;67802;50.846;7.958;2024-02-21T08:24:29;98135.03;;;20.00;35.09
78509;BME280;67802;50.846;7.958;2024-02-21T08:26:54;98138.41;;;20.02;34.99
78509;BME280;67802;50.846;7.958;2024-02-21T08:29:20;98134.81;;;20.04;35.28
78509;BME280;67802;50.846;7.958;2024-02-21T08:31:45;98133.13;;;20.02;35.11
78509;BME280;67802;50.846;7.958;2024-02-21T08:34:10;98125.94;;;20.05;35.07
78509;BME280;67802;50.846;7.958;2024-02-21T08:36:36;98113.72;;;20.04;35.03
78509;BME280;67802;50.846;7.958;2024-02-21T08:39:02;98118.03;;;20.05;35.01
78509;BME280;67802;50.846;7.958;2024-02-21T08:41:30;98111.91;;;20.04;34.90
78509;BME280;67802;50.846;7.958;2024-02-21T08:43:56;98113.56;;;20.05;35.07
78509;BME280;67802;50.846;7.958;2024-02-21T08:46:21;98104.84;;;20.05;35.03
78509;BME280;67802;50.846;7.958;2024-02-21T08:48:49;98104.84;;;20.05;35.09
78509;BME280;67802;50.846;7.958;2024-02-21T08:51:14;98098.72;;;20.04;35.04
78509;BME280;67802;50.846;7.958;2024-02-21T08:53:40;98093.44;;;20.04;35.20
78509;BME280;67802;50.846;7.958;2024-02-21T08:56:05;98103.16;;;20.04;35.16
78509;BME280;67802;50.846;7.958;2024-02-21T08:58:32;98099.81;;;20.01;35.12
78509;BME280;67802;50.846;7.958;2024-02-21T09:00:57;98090.94;;;20.02;35.08
78509;BME280;67802;50.846;7.958;2024-02-21T09:03:23;98079.66;;;20.00;35.12
78509;BME280;67802;50.846;7.958;2024-02-21T09:05:48;98078.00;;;19.99;35.23
78509;BME280;67802;50.846;7.958;2024-02-21T09:08:14;98082.41;;;19.99;35.19
78509;BME280;67802;50.846;7.958;2024-02-21T09:10:39;98081.59;;;19.98;35.08
78509;BME280;67802;50.846;7.958;2024-02-21T09:13:05;98079.91;;;19.97;35.22
78509;BME280;67802;50.846;7.958;2024-02-21T09:15:31;98090.56;;;19.96;35.21
78509;BME280;67802;50.846;7.958;2024-02-21T09:17:57;98084.47;;;19.95;35.34
78509;BME280;67802;50.846;7.958;2024-02-21T09:20:22;98081.94;;;19.94;35.16
78509;BME280;67802;50.846;7.958;2024-02-21T09:22:50;98084.69;;;19.92;35.25
78509;BME280;67802;50.846;7.958;2024-02-21T09:25:17;98088.28;;;19.91;35.05
78509;BME280;67802;50.846;7.958;2024-02-21T09:27:44;98077.75;;;19.91;35.42
78509;BME280;67802;50.846;7.958;2024-02-21T09:30:10;98072.56;;;19.90;35.26
78509;BME280;67802;50.846;7.958;2024-02-21T09:32:35;98069.13;;;19.89;35.57
78509;BME280;67802;50.846;7.958;2024-02-21T09:35:01;98071.81;;;19.87;35.30
78509;BME280;67802;50.846;7.958;2024-02-21T09:37:26;98061.41;;;19.86;35.30
78509;BME280;67802;50.846;7.958;2024-02-21T09:39:51;98057.94;;;19.85;35.45
78509;BME280;67802;50.846;7.958;2024-02-21T09:42:21;98051.81;;;19.85;35.29
78509;BME280;67802;50.846;7.958;2024-02-21T09:44:47;98053.75;;;19.83;35.47
78509;BME280;67802;50.846;7.958;2024-02-21T09:47:22;98052.06;;;19.82;35.18
78509;BME280;67802;50.846;7.958;2024-02-21T09:49:49;98051.25;;;19.81;35.43
78509;BME280;67802;50.846;7.958;2024-02-21T09:52:15;98046.06;;;19.80;35.49
78509;BME280;67802;50.846;7.958;2024-02-21T09:54:41;98047.88;;;19.79;35.44
78509;BME280;67802;50.846;7.958;2024-02-21T09:57:10;98037.44;;;19.78;35.46
78509;BME280;67802;50.846;7.958;2024-02-21T09:59:37;98035.75;;;19.77;35.42
78509;BME280;67802;50.846;7.958;2024-02-21T10:02:03;98032.31;;;19.76;35.47
78509;BME280;67802;50.846;7.958;2024-02-21T10:04:30;98013.00;;;19.76;35.46
78509;BME280;67802;50.846;7.958;2024-02-21T10:06:55;98018.41;;;19.74;35.45
78509;BME280;67802;50.846;7.958;2024-02-21T10:09:25;98008.69;;;19.75;35.73
78509;BME280;67802;50.846;7.958;2024-02-21T10:11:53;98011.47;;;19.73;35.46
78509;BME280;67802;50.846;7.958;2024-02-21T10:14:19;98010.59;;;19.72;35.62
78509;BME280;67802;50.846;7.958;2024-02-21T10:16:48;98024.75;;;19.71;35.29
78509;BME280;67802;50.846;7.958;2024-02-21T10:19:20;98008.94;;;19.71;35.53
78509;BME280;67802;50.846;7.958;2024-02-21T10:22:03;98014.19;;;19.71;35.37
78509;BME280;67802;50.846;7.958;2024-02-21T10:24:34;98008.09;;;19.71;35.58
78509;BME280;67802;50.846;7.958;2024-02-21T10:27:06;98011.69;;;19.70;35.75
78509;BME280;67802;50.846;7.958;2024-02-21T10:29:34;98009.78;;;19.72;35.56
78509;BME280;67802;50.846;7.958;2024-02-21T10:32:18;98002.81;;;19.71;35.50
78509;BME280;67802;50.846;7.958;2024-02-21T10:34:43;98001.97;;;19.70;35.56
78509;BME280;67802;50.846;7.958;2024-02-21T10:37:09;97993.09;;;19.71;35.49
78509;BME280;67802;50.846;7.958;2024-02-21T10:39:38;97990.59;;;19.70;35.54
78509;BME280;67802;50.846;7.958;2024-02-21T10:42:04;97992.38;;;19.69;35.61
78509;BME280;67802;50.846;7.958;2024-02-21T10:44:32;97990.47;;;19.71;35.68
78509;BME280;67802;50.846;7.958;2024-02-21T10:46:58;97988.81;;;19.70;35.57
78509;BME280;67802;50.846;7.958;2024-02-21T10:49:25;97982.56;;;19.71;35.55
78509;BME280;67802;50.846;7.958;2024-02-21T10:51:54;97987.00;;;19.71;35.50
78509;BME280;67802;50.846;7.958;2024-02-21T10:54:30;97979.22;;;19.69;35.80
78509;BME280;67802;50.846;7.958;2024-02-21T10:57:00;97968.44;;;19.72;35.79
78509;BME280;67802;50.846;7.958;2024-02-21T10:59:27;97965.78;;;19.72;35.55
78509;BME280;67802;50.846;7.958;2024-02-21T11:01:55;97968.44;;;19.72;35.45
78509;BME280;67802;50.846;7.958;2024-02-21T11:04:20;97954.28;;;19.73;35.58
78509;BME280;67802;50.846;7.958;2024-02-21T11:06:46;97955.00;;;19.76;35.59
78509;BME280;67802;50.846;7.958;2024-02-21T11:09:12;97947.09;;;19.76;35.61
78509;BME280;67802;50.846;7.958;2024-02-21T11:11:39;97941.72;;;19.77;35.68
78509;BME280;67802;50.846;7.958;2024-02-21T11:16:38;97936.31;;;19.79;35.68
78509;BME280;67802;50.846;7.958;2024-02-21T11:19:09;97933.59;;;19.80;35.54
78509;BME280;67802;50.846;7.958;2024-02-21T11:21:36;97929.97;;;19.81;35.49
78509;BME280;67802;50.846;7.958;2024-02-21T11:24:03;97925.44;;;19.83;35.47
78509;BME280;67802;50.846;7.958;2024-02-21T11:26:30;97918.34;;;19.84;35.50
78509;BME280;67802;50.846;7.958;2024-02-21T11:31:25;97907.69;;;19.85;35.46
78509;BME280;67802;50.846;7.958;2024-02-21T11:33:52;97920.75;;;19.87;35.55
78509;BME280;67802;50.846;7.958;2024-02-21T11:36:27;97910.09;;;19.89;35.35
78509;BME280;67802;50.846;7.958;2024-02-21T11:38:53;97905.66;;;19.89;35.31
78509;BME280;67802;50.846;7.958;2024-02-21T11:41:19;97891.53;;;19.90;35.38
78509;BME280;67802;50.846;7.958;2024-02-21T11:43:48;97891.53;;;19.90;35.65
78509;BME280;67802;50.846;7.958;2024-02-21T11:46:14;97882.75;;;19.90;35.49
78509;BME280;67802;50.846;7.958;2024-02-21T11:48:41;97875.56;;;19.92;35.49
78509;BME280;67802;50.846;7.958;2024-02-21T11:51:09;97873.78;;;19.92;35.28
78509;BME280;67802;50.846;7.958;2024-02-21T11:53:35;97856.03;;;19.94;35.50
78509;BME280;67802;50.846;7.958;2024-02-21T11:56:00;97854.38;;;19.93;35.50
78509;BME280;67802;50.846;7.958;2024-02-21T11:58:25;97843.81;;;19.93;35.26
78509;BME280;67802;50.846;7.958;2024-02-21T12:00:52;97843.81;;;19.93;35.34
78509;BME280;67802;50.846;7.958;2024-02-21T12:03:17;97836.75;;;19.94;35.42
78509;BME280;67802;50.846;7.958;2024-02-21T12:05:43;97816.50;;;19.94;35.33
78509;BME280;67802;50.846;7.958;2024-02-21T12:08:08;97813.88;;;19.94;35.55
78509;BME280;67802;50.846;7.958;2024-02-21T12:10:35;97808.59;;;19.94;35.46
78509;BME280;67802;50.846;7.958;2024-02-21T12:13:10;97804.13;;;19.95;35.42
78509;BME280;67802;50.846;7.958;2024-02-21T12:15:35;97808.59;;;19.94;35.39
78509;BME280;67802;50.846;7.958;2024-02-21T12:18:01;97808.59;;;19.94;35.49
78509;BME280;67802;50.846;7.958;2024-02-21T12:20:26;97805.00;;;19.95;35.42
78509;BME280;67802;50.846;7.958;2024-02-21T12:22:52;97796.38;;;19.93;35.60
78509;BME280;67802;50.846;7.958;2024-02-21T12:25:21;97792.78;;;19.94;35.46
78509;BME280;67802;50.846;7.958;2024-02-21T12:27:51;97783.19;;;19.93;35.50
78509;BME280;67802;50.846;7.958;2024-02-21T12:30:18;97773.59;;;19.92;35.33
78509;BME280;67802;50.846;7.958;2024-02-21T12:32:43;97773.59;;;19.92;35.51
78509;BME280;67802;50.846;7.958;2024-02-21T12:35:09;97766.66;;;19.91;35.51
78509;BME280;67802;50.846;7.958;2024-02-21T12:37:34;97765.00;;;19.90;35.33
78509;BME280;67802;50.846;7.958;2024-02-21T12:39:59;97764.13;;;19.90;35.73
78509;BME280;67802;50.846;7.958;2024-02-21T12:42:25;97757.19;;;19.89;35.53
78509;BME280;67802;50.846;7.958;2024-02-21T12:44:51;97756.34;;;19.88;35.50
78509;BME280;67802;50.846;7.958;2024-02-21T12:47:18;97754.66;;;19.87;35.76
78509;BME280;67802;50.846;7.958;2024-02-21T12:49:45;97745.06;;;19.86;35.56
78509;BME280;67802;50.846;7.958;2024-02-21T12:52:10;97753.00;;;19.86;35.33
78509;BME280;67802;50.846;7.958;2024-02-21T12:54:35;97740.78;;;19.85;35.72
78509;BME280;67802;50.846;7.958;2024-02-21T12:57:01;97722.47;;;19.83;35.60
78509;BME280;67802;50.846;7.958;2024-02-21T12:59:28;97714.66;;;19.82;35.66